createdAt,value
2023-01-26T00:01:10.496Z,103216.28
2023-01-26T00:03:38.517Z,103223.38
2023-01-26T00:06:06.515Z,103231.31
2023-01-26T00:08:37.486Z,103242.72
2023-01-26T00:11:06.011Z,103241.81
2023-01-26T00:13:34.008Z,103243.59
2023-01-26T00:16:02.468Z,103239.19
2023-01-26T00:18:31.891Z,103203.75
2023-01-26T00:20:59.950Z,103229.50
2023-01-26T00:23:28.382Z,103223.31
2023-01-26T00:25:56.321Z,103245.47
2023-01-26T00:28:24.360Z,103190.59
2023-01-26T00:30:52.351Z,103226.97
2023-01-26T00:33:20.341Z,103222.59
2023-01-26T00:35:56.525Z,103225.19
2023-01-26T00:38:24.570Z,103221.66
2023-01-26T00:40:52.520Z,103224.28
2023-01-26T00:43:20.441Z,103233.19
2023-01-26T00:45:48.359Z,103235.81
2023-01-26T00:48:16.313Z,103231.41
2023-01-26T00:50:44.242Z,103230.53
2023-01-26T00:53:13.607Z,103242.00
2023-01-26T00:55:41.532Z,103231.41
2023-01-26T00:58:09.583Z,103233.16
2023-01-26T01:00:38.459Z,103227.84
2023-01-26T01:03:06.550Z,103218.06
2023-01-26T01:05:34.622Z,103225.16
2023-01-26T01:08:02.683Z,103233.09
2023-01-26T01:10:32.037Z,103229.59
2023-01-26T01:13:00.016Z,103230.53
2023-01-26T01:15:27.978Z,103234.91
2023-01-26T01:17:55.967Z,103250.75
2023-01-26T01:20:23.917Z,103240.13
2023-01-26T01:22:52.451Z,103237.47
2023-01-26T01:25:20.464Z,103220.72
2023-01-26T01:27:49.779Z,103243.78
2023-01-26T01:30:17.691Z,103237.72
2023-01-26T01:32:49.676Z,103236.03
2023-01-26T01:35:17.727Z,103193.59
2023-01-26T01:37:45.741Z,103221.97
2023-01-26T01:40:14.321Z,103212.28
2023-01-26T01:42:49.466Z,103221.13
2023-01-26T01:45:40.670Z,103223.75
2023-01-26T01:48:10.890Z,103230.78
2023-01-26T01:50:39.717Z,103224.59
2023-01-26T01:53:07.782Z,103235.19
2023-01-26T01:55:35.726Z,103234.25
2023-01-26T01:58:05.028Z,103241.28
2023-01-26T02:00:33.009Z,103230.66
2023-01-26T02:03:14.989Z,103223.53
2023-01-26T02:05:47.516Z,103235.00
2023-01-26T02:08:16.083Z,103229.72
2023-01-26T02:10:44.291Z,103218.25
2023-01-26T02:13:13.566Z,103203.22
2023-01-26T02:15:41.495Z,103225.38
2023-01-26T02:18:11.516Z,103212.16
2023-01-26T02:20:44.176Z,103225.41
2023-01-26T02:23:26.401Z,103221.88
2023-01-26T02:26:05.742Z,103222.75
2023-01-26T02:28:34.004Z,103233.31
2023-01-26T02:31:02.096Z,103228.03
2023-01-26T02:33:30.709Z,103228.03
2023-01-26T02:35:58.627Z,103234.22
2023-01-26T02:38:27.896Z,103230.69
2023-01-26T02:40:56.843Z,103228.03
2023-01-26T02:43:26.334Z,103229.78
2023-01-26T02:45:54.365Z,103224.50
2023-01-26T02:48:36.137Z,103231.53
2023-01-26T02:51:04.091Z,103224.50
2023-01-26T02:53:32.032Z,103216.59
2023-01-26T02:55:59.017Z,103210.44
2023-01-26T02:58:28.331Z,103191.84
2023-01-26T03:00:56.302Z,103215.72
2023-01-26T03:03:25.490Z,103198.94
2023-01-26T03:05:53.513Z,103192.78
2023-01-26T03:08:24.756Z,103202.53
2023-01-26T03:10:52.679Z,103201.63
2023-01-26T03:13:20.602Z,103200.72
2023-01-26T03:15:54.729Z,103205.13
2023-01-26T03:18:40.854Z,103214.84
2023-01-26T03:21:29.384Z,103221.88
2023-01-26T03:24:14.571Z,103221.88
2023-01-26T03:27:00.231Z,103215.69
2023-01-26T03:29:28.625Z,103220.09
2023-01-26T03:31:59.307Z,103213.00
2023-01-26T03:34:27.349Z,103231.56
2023-01-26T03:36:55.517Z,103235.13
2023-01-26T03:39:40.802Z,103227.19
2023-01-26T03:42:26.242Z,103225.38
2023-01-26T03:45:11.467Z,103226.25
2023-01-26T03:47:58.426Z,103221.81
2023-01-26T03:50:43.532Z,103221.72
2023-01-26T03:53:32.988Z,103227.97
2023-01-26T03:56:18.418Z,103213.78
2023-01-26T03:58:46.589Z,103233.25
2023-01-26T04:01:20.161Z,103228.81
2023-01-26T04:04:08.151Z,103233.25
2023-01-26T04:06:53.441Z,103235.00
2023-01-26T04:09:21.517Z,103235.00
2023-01-26T04:11:49.597Z,103227.06
2023-01-26T04:14:38.193Z,103235.03
2023-01-26T04:17:35.374Z,103227.91
2023-01-26T04:20:22.869Z,103241.16
2023-01-26T04:22:50.830Z,103249.06
2023-01-26T04:25:20.205Z,103249.94
2023-01-26T04:27:48.157Z,103241.13
2023-01-26T04:30:17.022Z,103241.16
2023-01-26T04:32:46.267Z,103242.91
2023-01-26T04:35:15.737Z,103240.22
2023-01-26T04:37:43.722Z,103254.34
2023-01-26T04:40:12.983Z,103244.66
2023-01-26T04:42:41.223Z,103249.06
2023-01-26T04:45:11.314Z,103247.25
2023-01-26T04:47:39.219Z,103252.56
2023-01-26T04:50:07.779Z,103255.16
2023-01-26T04:52:37.105Z,103248.09
2023-01-26T04:55:05.537Z,103260.44
2023-01-26T04:57:33.462Z,103266.59
2023-01-26T05:00:01.409Z,103270.13
2023-01-26T05:02:30.591Z,103263.03
2023-01-26T05:04:58.639Z,103266.59
2023-01-26T05:07:26.590Z,103271.84
2023-01-26T05:09:55.883Z,103271.78
2023-01-26T05:12:36.337Z,103262.97
2023-01-26T05:15:04.474Z,103256.75
2023-01-26T05:17:32.381Z,103264.69
2023-01-26T05:20:00.288Z,103257.66
2023-01-26T05:22:28.274Z,103255.88
2023-01-26T05:24:57.593Z,103268.19
2023-01-26T05:27:25.587Z,103272.59
2023-01-26T05:29:53.531Z,103279.66
2023-01-26T05:32:22.217Z,103273.53
2023-01-26T05:34:50.146Z,103278.81
2023-01-26T05:37:18.058Z,103269.13
2023-01-26T05:39:45.979Z,103262.94
2023-01-26T05:42:15.330Z,103270.00
2023-01-26T05:44:43.279Z,103265.59
2023-01-26T05:47:11.486Z,103268.25
2023-01-26T05:49:42.812Z,103256.72
2023-01-26T05:52:11.100Z,103261.13
2023-01-26T05:54:38.995Z,103262.91
2023-01-26T05:57:06.918Z,103259.38
2023-01-26T05:59:36.213Z,103257.59
2023-01-26T06:02:04.204Z,103264.66
2023-01-26T06:04:32.306Z,103254.03
2023-01-26T06:07:00.711Z,103261.06
2023-01-26T06:09:28.655Z,103262.00
2023-01-26T06:11:56.572Z,103254.91
2023-01-26T06:14:24.584Z,103250.47
2023-01-26T06:16:54.845Z,103269.94
2023-01-26T06:19:22.912Z,103277.03
2023-01-26T06:21:50.860Z,103284.91
2023-01-26T06:24:18.833Z,103283.16
2023-01-26T06:26:48.569Z,103280.47
2023-01-26T06:29:16.594Z,103289.34
2023-01-26T06:31:44.601Z,103274.34
2023-01-26T06:34:14.003Z,103261.03
2023-01-26T06:36:41.984Z,103242.34
2023-01-26T06:39:10.590Z,103281.38
2023-01-26T06:41:38.550Z,103286.66
2023-01-26T06:44:06.767Z,103285.75
2023-01-26T06:46:34.719Z,103283.09
2023-01-26T06:49:03.272Z,103291.91
2023-01-26T06:51:43.880Z,103298.94
2023-01-26T06:54:11.974Z,103298.00
2023-01-26T06:56:40.026Z,103298.88
2023-01-26T06:59:09.882Z,103303.28
2023-01-26T07:01:39.485Z,103311.22
2023-01-26T07:04:07.472Z,103312.97
2023-01-26T07:06:35.485Z,103308.56
2023-01-26T07:09:04.980Z,103304.13
2023-01-26T07:11:33.045Z,103313.81
2023-01-26T07:14:01.039Z,103309.41
2023-01-26T07:16:29.268Z,103300.50
2023-01-26T07:18:57.608Z,103293.50
2023-01-26T07:21:25.589Z,103312.97
2023-01-26T07:23:54.207Z,103316.50
2023-01-26T07:26:23.576Z,103322.69
2023-01-26T07:28:51.555Z,103321.78
2023-01-26T07:31:19.580Z,103318.19
2023-01-26T07:33:47.594Z,103333.25
2023-01-26T07:36:15.518Z,103327.88
2023-01-26T07:38:43.439Z,103323.47
2023-01-26T07:41:12.911Z,103316.44
2023-01-26T07:43:42.627Z,103331.47
2023-01-26T07:46:12.270Z,103331.41
2023-01-26T07:48:40.863Z,103333.19
2023-01-26T07:51:11.211Z,103337.53
2023-01-26T07:53:41.192Z,103337.59
2023-01-26T07:56:10.323Z,103348.16
2023-01-26T07:58:38.253Z,103349.91
2023-01-26T08:01:11.780Z,103349.00
2023-01-26T08:03:39.771Z,103352.50
2023-01-26T08:06:11.662Z,103362.22
2023-01-26T08:08:41.147Z,103370.16
2023-01-26T08:11:09.602Z,103372.81
2023-01-26T08:13:37.694Z,103381.66
2023-01-26T08:16:06.782Z,103387.81
2023-01-26T08:18:36.134Z,103392.25
2023-01-26T08:21:04.354Z,103389.63
2023-01-26T08:23:32.320Z,103388.78
2023-01-26T08:26:02.332Z,103380.78
2023-01-26T08:28:30.364Z,103386.22
2023-01-26T08:30:58.451Z,103390.66
2023-01-26T08:33:26.506Z,103380.03
2023-01-26T08:35:55.951Z,103394.31
2023-01-26T08:38:23.950Z,103402.31
2023-01-26T08:40:53.829Z,103387.28
2023-01-26T08:43:21.783Z,103401.53
2023-01-26T08:45:49.824Z,103403.34
2023-01-26T08:48:18.345Z,103398.09
2023-01-26T08:50:46.317Z,103393.72
2023-01-26T08:53:15.679Z,103402.59
2023-01-26T08:55:43.600Z,103409.69
2023-01-26T08:58:11.519Z,103405.34
2023-01-26T09:00:39.471Z,103406.31
2023-01-26T09:03:07.493Z,103408.09
2023-01-26T09:05:36.413Z,103404.59
2023-01-26T09:08:04.488Z,103422.38
2023-01-26T09:10:33.895Z,103404.69
2023-01-26T09:13:02.152Z,103361.31
2023-01-26T09:15:30.133Z,103407.56
2023-01-26T09:18:00.678Z,103421.72
2023-01-26T09:20:28.858Z,103412.09
2023-01-26T09:22:57.183Z,103414.78
2023-01-26T09:25:25.127Z,103414.84
2023-01-26T09:27:54.546Z,103413.13
2023-01-26T09:30:24.819Z,103408.78
2023-01-26T09:32:52.825Z,103412.34
2023-01-26T09:35:20.736Z,103420.31
2023-01-26T09:37:48.669Z,103419.50
2023-01-26T09:40:18.119Z,103423.94
2023-01-26T09:43:01.749Z,103411.63
2023-01-26T09:45:33.068Z,103418.75
2023-01-26T09:48:09.265Z,103369.06
2023-01-26T09:50:39.096Z,103408.16
2023-01-26T09:53:08.692Z,103428.56
2023-01-26T09:55:36.634Z,103417.13
2023-01-26T09:58:05.121Z,103423.34
2023-01-26T10:00:36.167Z,103410.06
2023-01-26T10:03:11.058Z,103418.06
2023-01-26T10:05:42.809Z,103425.19
2023-01-26T10:08:12.397Z,103426.09
2023-01-26T10:10:42.192Z,103413.72
2023-01-26T10:13:11.029Z,103423.50
2023-01-26T10:15:41.124Z,103403.13
2023-01-26T10:18:10.100Z,103413.81
2023-01-26T10:20:39.887Z,103412.03
2023-01-26T10:23:08.759Z,103416.47
2023-01-26T10:25:39.179Z,103419.16
2023-01-26T10:28:13.477Z,103425.38
2023-01-26T10:30:43.020Z,103426.25
2023-01-26T10:33:16.518Z,103428.06
2023-01-26T10:35:44.651Z,103422.75
2023-01-26T10:38:29.186Z,103414.78
2023-01-26T10:40:57.144Z,103417.44
2023-01-26T10:43:25.033Z,103414.78
2023-01-26T10:45:54.411Z,103414.81
2023-01-26T10:48:24.209Z,103420.13
2023-01-26T10:50:52.274Z,103419.22
2023-01-26T10:53:23.825Z,103413.91
2023-01-26T10:56:00.701Z,103423.63
2023-01-26T10:58:49.278Z,103422.66
2023-01-26T11:01:22.772Z,103419.19
2023-01-26T11:04:05.982Z,103416.53
2023-01-26T11:06:34.075Z,103406.72
2023-01-26T11:09:12.705Z,103426.00
2023-01-26T11:11:40.675Z,103428.38
2023-01-26T11:14:12.480Z,103436.94
2023-01-26T11:16:42.157Z,103420.59
2023-01-26T11:19:13.609Z,103409.50
2023-01-26T11:21:42.574Z,103411.84
2023-01-26T11:24:12.433Z,103428.25
2023-01-26T11:27:09.898Z,103427.88
2023-01-26T11:29:47.869Z,103424.88
2023-01-26T11:32:22.006Z,103424.59
2023-01-26T11:34:54.843Z,103426.13
2023-01-26T11:37:40.450Z,103425.03
2023-01-26T11:40:27.966Z,103431.88
2023-01-26T11:43:07.103Z,103435.28
2023-01-26T11:45:38.037Z,103446.09
2023-01-26T11:48:15.313Z,103440.72
2023-01-26T11:50:46.449Z,103430.84
2023-01-26T11:53:25.475Z,103438.09
2023-01-26T11:55:59.850Z,103434.19
2023-01-26T11:58:33.044Z,103418.66
2023-01-26T12:01:01.925Z,103422.28
2023-01-26T12:03:34.848Z,103419.16
2023-01-26T12:06:04.020Z,103431.31
2023-01-26T12:08:38.506Z,103426.38
2023-01-26T12:11:21.360Z,103424.09
2023-01-26T12:13:51.236Z,103428.06
2023-01-26T12:16:20.010Z,103428.25
2023-01-26T12:19:01.850Z,103413.41
2023-01-26T12:21:38.533Z,103413.88
2023-01-26T12:24:11.047Z,103414.09
2023-01-26T12:26:48.387Z,103412.25
2023-01-26T12:29:18.235Z,103411.50
2023-01-26T12:31:49.050Z,103418.75
2023-01-26T12:34:18.462Z,103416.19
2023-01-26T12:36:49.450Z,103410.16
2023-01-26T12:39:18.210Z,103409.38
2023-01-26T12:41:59.892Z,103398.78
2023-01-26T12:44:34.833Z,103407.72
2023-01-26T12:47:06.897Z,103404.25
2023-01-26T12:49:38.666Z,103404.22
2023-01-26T12:52:08.696Z,103420.28
2023-01-26T12:54:38.576Z,103401.72
2023-01-26T12:57:07.714Z,103410.53
2023-01-26T12:59:48.235Z,103406.97
2023-01-26T13:02:27.471Z,103397.19
2023-01-26T13:04:58.339Z,103410.50
2023-01-26T13:07:34.390Z,103398.06
2023-01-26T13:10:29.403Z,103405.16
2023-01-26T13:12:59.394Z,103398.13
2023-01-26T13:15:28.308Z,103396.38
2023-01-26T13:17:57.796Z,103395.53
2023-01-26T13:20:51.497Z,103374.31
2023-01-26T13:23:52.810Z,103378.72
2023-01-26T13:26:51.837Z,103383.13
2023-01-26T13:29:35.435Z,103383.97
2023-01-26T13:32:52.694Z,103367.97
2023-01-26T13:35:22.757Z,103372.38
2023-01-26T13:37:56.517Z,103369.56
2023-01-26T13:40:25.988Z,103366.78
2023-01-26T13:42:57.745Z,103375.63
2023-01-26T13:45:30.534Z,103372.97
2023-01-26T13:47:58.493Z,103375.78
2023-01-26T13:50:32.240Z,103384.72
2023-01-26T13:53:00.266Z,103381.31
2023-01-26T13:55:29.289Z,103379.56
2023-01-26T13:58:12.914Z,103380.50
2023-01-26T14:00:40.892Z,103376.09
2023-01-26T14:03:22.087Z,103357.59
2023-01-26T14:05:55.491Z,103370.00
2023-01-26T14:08:23.503Z,103376.22
2023-01-26T14:10:51.496Z,103359.34
2023-01-26T14:13:22.276Z,103367.28
2023-01-26T14:15:57.476Z,103367.25
2023-01-26T14:18:26.390Z,103361.91
2023-01-26T14:21:01.076Z,103367.25
2023-01-26T14:23:29.918Z,103370.78
2023-01-26T14:25:58.950Z,103365.47
2023-01-26T14:28:31.167Z,103365.47
2023-01-26T14:31:01.302Z,103366.31
2023-01-26T14:33:29.307Z,103363.59
2023-01-26T14:35:58.136Z,103359.16
2023-01-26T14:38:28.894Z,103370.66
2023-01-26T14:40:57.439Z,103362.69
2023-01-26T14:43:25.607Z,103369.81
2023-01-26T14:45:55.272Z,103384.00
2023-01-26T14:48:25.073Z,103368.00
2023-01-26T14:50:52.995Z,103379.50
2023-01-26T14:53:22.037Z,103373.31
2023-01-26T14:55:51.648Z,103369.78
2023-01-26T14:58:21.928Z,103373.28
2023-01-26T15:00:50.247Z,103375.09
2023-01-26T15:03:24.251Z,103362.72
2023-01-26T15:06:08.339Z,103361.00
2023-01-26T15:08:36.432Z,103361.94
2023-01-26T15:11:23.400Z,103354.84
2023-01-26T15:13:54.372Z,103361.94
2023-01-26T15:16:23.055Z,103365.47
2023-01-26T15:18:59.367Z,103354.81
2023-01-26T15:21:32.856Z,103363.66
2023-01-26T15:24:00.858Z,103370.81
2023-01-26T15:26:31.044Z,103374.41
2023-01-26T15:29:00.218Z,103266.47
2023-01-26T15:31:30.751Z,103375.34
2023-01-26T15:34:01.678Z,103375.38
2023-01-26T15:36:35.284Z,103362.97
2023-01-26T15:39:05.727Z,103365.66
2023-01-26T15:41:35.122Z,103370.94
2023-01-26T15:44:03.062Z,103370.09
2023-01-26T15:46:31.137Z,103365.66
2023-01-26T15:48:59.102Z,103363.94
2023-01-26T15:51:27.089Z,103363.09
2023-01-26T15:53:55.036Z,103356.91
2023-01-26T15:56:22.977Z,103363.16
2023-01-26T15:58:52.228Z,103374.69
2023-01-26T16:01:22.556Z,103360.53
2023-01-26T16:03:50.518Z,103368.50
2023-01-26T16:06:23.837Z,103373.84
2023-01-26T16:08:51.785Z,103367.66
2023-01-26T16:11:19.878Z,103370.31
2023-01-26T16:14:02.000Z,103373.88
2023-01-26T16:16:32.774Z,103373.88
2023-01-26T16:19:00.840Z,103373.88
2023-01-26T16:21:31.529Z,103377.47
2023-01-26T16:23:59.832Z,103370.34
2023-01-26T16:26:28.098Z,103366.81
2023-01-26T16:28:56.040Z,103372.16
2023-01-26T16:31:25.368Z,103386.31
2023-01-26T16:33:55.054Z,103381.03
2023-01-26T16:36:23.064Z,103384.56
2023-01-26T16:38:51.078Z,103381.03
2023-01-26T16:41:22.497Z,103377.50
2023-01-26T16:43:50.442Z,103371.31
2023-01-26T16:46:18.408Z,103382.81
2023-01-26T16:48:46.402Z,103381.94
2023-01-26T16:51:20.921Z,103387.28
2023-01-26T16:53:49.033Z,103390.84
2023-01-26T16:56:17.386Z,103380.19
2023-01-26T16:58:45.553Z,103390.81
2023-01-26T17:01:22.436Z,103384.63
2023-01-26T17:03:50.507Z,103386.41
2023-01-26T17:06:20.365Z,103389.94
2023-01-26T17:08:48.367Z,103381.06
2023-01-26T17:11:17.644Z,103387.28
2023-01-26T17:13:45.607Z,103383.72
2023-01-26T17:16:15.354Z,103370.44
2023-01-26T17:18:45.550Z,103380.16
2023-01-26T17:21:13.784Z,103376.63
2023-01-26T17:23:44.467Z,103381.94
2023-01-26T17:26:13.179Z,103383.72
2023-01-26T17:28:41.112Z,103374.84
2023-01-26T17:31:10.791Z,103376.63
2023-01-26T17:33:38.866Z,103373.09
2023-01-26T17:36:07.909Z,103366.00
2023-01-26T17:38:36.046Z,103375.78
2023-01-26T17:41:05.906Z,103370.44
2023-01-26T17:43:33.883Z,103393.50
2023-01-26T17:46:06.340Z,103388.19
2023-01-26T17:48:35.061Z,103397.06
2023-01-26T17:51:05.591Z,103400.59
2023-01-26T17:53:33.523Z,103400.56
2023-01-26T17:56:01.552Z,103406.81
2023-01-26T17:58:30.887Z,103389.06
2023-01-26T18:00:58.887Z,103392.59
2023-01-26T18:03:27.486Z,103397.94
2023-01-26T18:05:55.420Z,103393.50
2023-01-26T18:08:23.634Z,103400.59
2023-01-26T18:10:51.714Z,103397.03
2023-01-26T18:13:19.681Z,103403.25
2023-01-26T18:15:49.148Z,103400.59
2023-01-26T18:18:17.178Z,103409.47
2023-01-26T18:20:45.236Z,103399.72
2023-01-26T18:23:13.196Z,103392.59
2023-01-26T18:25:41.185Z,103399.72
2023-01-26T18:28:09.273Z,103394.41
2023-01-26T18:30:37.276Z,103400.59
2023-01-26T18:33:07.054Z,103398.81
2023-01-26T18:35:35.363Z,103400.59
2023-01-26T18:38:03.579Z,103387.31
2023-01-26T18:40:31.936Z,103390.00
2023-01-26T18:42:59.839Z,103409.47
2023-01-26T18:45:27.837Z,103403.28
2023-01-26T18:47:55.811Z,103405.94
2023-01-26T18:50:25.137Z,103415.69
2023-01-26T18:52:53.061Z,103416.56
2023-01-26T18:55:21.037Z,103429.88
2023-01-26T18:57:50.807Z,103437.84
2023-01-26T19:00:19.853Z,103431.63
2023-01-26T19:02:47.823Z,103444.91
2023-01-26T19:05:15.871Z,103439.59
2023-01-26T19:07:45.193Z,103450.25
2023-01-26T19:10:13.161Z,103446.72
2023-01-26T19:12:41.134Z,103452.00
2023-01-26T19:15:10.923Z,103446.72
2023-01-26T19:17:38.972Z,103449.38
2023-01-26T19:20:08.159Z,103452.03
2023-01-26T19:22:36.128Z,103444.94
2023-01-26T19:25:06.080Z,103443.19
2023-01-26T19:27:34.063Z,103434.31
2023-01-26T19:30:02.156Z,103446.69
2023-01-26T19:32:30.133Z,103442.28
2023-01-26T19:34:58.065Z,103435.19
2023-01-26T19:37:26.046Z,103439.63
2023-01-26T19:39:54.015Z,103441.41
2023-01-26T19:42:23.402Z,103438.72
2023-01-26T19:44:51.364Z,103449.34
2023-01-26T19:47:19.409Z,103444.94
2023-01-26T19:49:47.357Z,103444.06
2023-01-26T19:52:15.373Z,103436.97
2023-01-26T19:54:43.344Z,103436.06
2023-01-26T19:57:11.363Z,103432.53
2023-01-26T19:59:40.719Z,103428.09
2023-01-26T20:02:11.419Z,103419.22
2023-01-26T20:04:39.652Z,103422.78
2023-01-26T20:07:08.181Z,103414.81
2023-01-26T20:09:36.266Z,103413.94
2023-01-26T20:12:06.176Z,103410.38
2023-01-26T20:14:34.325Z,103414.78
2023-01-26T20:17:03.679Z,103415.69
2023-01-26T20:19:34.900Z,103419.22
2023-01-26T20:22:02.982Z,103415.69
2023-01-26T20:24:31.006Z,103412.16
2023-01-26T20:26:59.012Z,103422.78
2023-01-26T20:29:27.142Z,103417.47
2023-01-26T20:31:55.479Z,103413.91
2023-01-26T20:34:24.931Z,103408.59
2023-01-26T20:36:57.752Z,103390.00
2023-01-26T20:39:25.916Z,103405.94
2023-01-26T20:41:54.101Z,103409.47
2023-01-26T20:44:22.069Z,103412.16
2023-01-26T20:46:50.088Z,103411.25
2023-01-26T20:49:21.135Z,103409.50
2023-01-26T20:51:50.708Z,103399.75
2023-01-26T20:54:18.865Z,103388.22
2023-01-26T20:56:48.082Z,103393.53
2023-01-26T20:59:16.102Z,103387.34
2023-01-26T21:01:44.239Z,103387.34
2023-01-26T21:04:13.089Z,103390.88
2023-01-26T21:06:41.819Z,103388.22
2023-01-26T21:09:12.886Z,103395.31
2023-01-26T21:11:41.120Z,103391.75
2023-01-26T21:14:11.445Z,103397.06
2023-01-26T21:16:39.463Z,103405.94
2023-01-26T21:19:07.592Z,103408.59
2023-01-26T21:21:35.710Z,103416.56
2023-01-26T21:24:03.869Z,103419.22
2023-01-26T21:26:34.746Z,103425.44
2023-01-26T21:29:02.755Z,103413.91
2023-01-26T21:31:31.707Z,103424.53
2023-01-26T21:34:00.125Z,103429.84
2023-01-26T21:36:28.923Z,103429.84
2023-01-26T21:38:57.613Z,103438.72
2023-01-26T21:41:43.662Z,103438.69
2023-01-26T21:44:14.002Z,103442.25
2023-01-26T21:46:42.065Z,103444.00
2023-01-26T21:49:10.893Z,103432.50
2023-01-26T21:51:56.093Z,103444.91
2023-01-26T21:54:24.009Z,103449.34
2023-01-26T21:56:51.918Z,103453.78
2023-01-26T21:59:20.263Z,103450.22
2023-01-26T22:01:48.773Z,103434.28
2023-01-26T22:04:17.807Z,103428.06
2023-01-26T22:06:45.772Z,103452.88
2023-01-26T22:09:15.204Z,103446.69
2023-01-26T22:11:43.205Z,103444.91
2023-01-26T22:14:14.698Z,103441.34
2023-01-26T22:16:44.121Z,103460.88
2023-01-26T22:19:12.372Z,103448.47
2023-01-26T22:21:40.412Z,103441.38
2023-01-26T22:24:11.664Z,103459.97
2023-01-26T22:26:39.909Z,103450.22
2023-01-26T22:29:07.990Z,103448.47
2023-01-26T22:31:36.000Z,103433.38
2023-01-26T22:34:05.446Z,103450.22
2023-01-26T22:36:33.500Z,103445.81
2023-01-26T22:39:01.524Z,103452.00
2023-01-26T22:41:30.016Z,103447.56
2023-01-26T22:43:58.423Z,103453.78
2023-01-26T22:46:27.190Z,103460.84
2023-01-26T22:48:57.159Z,103456.41
2023-01-26T22:51:27.110Z,103452.00
2023-01-26T22:53:55.223Z,103449.31
2023-01-26T22:56:23.214Z,103447.56
2023-01-26T22:58:57.983Z,103440.47
2023-01-26T23:01:26.904Z,103433.31
2023-01-26T23:03:55.725Z,103436.88
2023-01-26T23:06:23.760Z,103427.13
2023-01-26T23:08:53.097Z,103433.28
2023-01-26T23:11:22.002Z,103425.28
2023-01-26T23:13:50.877Z,103419.06
2023-01-26T23:16:19.008Z,103419.94
2023-01-26T23:18:47.013Z,103411.06
2023-01-26T23:21:15.135Z,103417.25
2023-01-26T23:23:43.106Z,103420.78
2023-01-26T23:26:12.910Z,103430.47
2023-01-26T23:28:41.691Z,103410.09
2023-01-26T23:31:09.752Z,103426.91
2023-01-26T23:33:37.827Z,103410.06
2023-01-26T23:36:06.891Z,103403.84
2023-01-26T23:38:34.837Z,103398.53
2023-01-26T23:41:03.275Z,103401.97
2023-01-26T23:43:32.831Z,103409.06
2023-01-26T23:46:00.779Z,103401.94
2023-01-26T23:48:28.747Z,103404.53
2023-01-26T23:50:57.058Z,103421.31
2023-01-26T23:53:25.014Z,103414.19
2023-01-26T23:55:52.990Z,103409.69
2023-01-26T23:58:20.935Z,103407.06
